createdAt,value
2017-11-13T00:00:58.578Z,17.75
2017-11-13T00:01:58.566Z,19.36
2017-11-13T00:02:58.558Z,19.94
2017-11-13T00:03:58.535Z,17.24
2017-11-13T00:04:58.536Z,18.89
2017-11-13T00:05:58.522Z,17.54
2017-11-13T00:06:58.509Z,17.83
2017-11-13T00:07:58.493Z,18.65
2017-11-13T00:09:01.304Z,20.90
2017-11-13T00:09:58.479Z,20.89
2017-11-13T00:10:58.459Z,19.02
2017-11-13T00:11:58.442Z,20.13
2017-11-13T00:12:59.306Z,17.91
2017-11-13T00:13:58.437Z,20.80
2017-11-13T00:14:58.427Z,18.96
2017-11-13T00:15:58.409Z,20.66
2017-11-13T00:16:58.393Z,19.78
2017-11-13T00:17:58.392Z,19.09
2017-11-13T00:18:58.383Z,19.00
2017-11-13T00:19:58.367Z,17.57
2017-11-13T00:20:58.356Z,18.12
2017-11-13T00:21:58.340Z,18.83
2017-11-13T00:22:58.329Z,16.42
2017-11-13T00:23:58.332Z,19.52
2017-11-13T00:24:58.312Z,21.25
2017-11-13T00:25:58.309Z,17.16
2017-11-13T00:26:58.284Z,17.40
2017-11-13T00:27:58.274Z,15.94
2017-11-13T00:28:58.262Z,14.74
2017-11-13T00:29:58.820Z,16.77
2017-11-13T00:30:58.254Z,14.71
2017-11-13T00:31:58.241Z,15.70
2017-11-13T00:32:58.215Z,14.08
2017-11-13T00:33:58.215Z,15.00
2017-11-13T00:34:58.199Z,13.92
2017-11-13T00:35:58.186Z,15.96
2017-11-13T00:36:58.175Z,12.66
2017-11-13T00:37:58.166Z,13.66
2017-11-13T00:38:58.150Z,13.27
2017-11-13T00:39:58.139Z,11.13
2017-11-13T00:40:58.131Z,13.17
2017-11-13T00:41:58.128Z,13.77
2017-11-13T00:42:58.120Z,12.61
2017-11-13T00:43:58.103Z,13.86
2017-11-13T00:44:58.114Z,14.66
2017-11-13T00:45:58.079Z,14.11
2017-11-13T00:46:58.076Z,12.84
2017-11-13T00:47:58.061Z,13.89
2017-11-13T00:48:58.056Z,14.98
2017-11-13T00:49:58.051Z,16.06
2017-11-13T00:50:58.031Z,15.54
2017-11-13T00:51:58.027Z,15.27
2017-11-13T00:52:58.002Z,16.40
2017-11-13T00:53:58.006Z,14.26
2017-11-13T00:54:57.984Z,14.50
2017-11-13T00:55:57.977Z,12.71
2017-11-13T00:56:57.954Z,13.35
2017-11-13T00:57:57.948Z,13.11
2017-11-13T00:58:57.946Z,14.11
2017-11-13T00:59:57.922Z,13.54
2017-11-13T01:00:57.913Z,11.84
2017-11-13T01:01:57.910Z,12.72
2017-11-13T01:02:57.889Z,14.03
2017-11-13T01:03:57.883Z,14.06
2017-11-13T01:04:57.873Z,14.79
2017-11-13T01:05:57.861Z,13.92
2017-11-13T01:06:57.854Z,13.65
2017-11-13T01:07:57.841Z,16.58
2017-11-13T01:08:57.846Z,16.89
2017-11-13T01:09:57.822Z,15.12
2017-11-13T01:10:57.808Z,13.73
2017-11-13T01:11:57.818Z,12.96
2017-11-13T01:12:57.780Z,12.27
2017-11-13T01:13:57.781Z,11.74
2017-11-13T01:14:57.759Z,12.60
2017-11-13T01:15:57.766Z,15.08
2017-11-13T01:16:57.741Z,13.86
2017-11-13T01:17:57.728Z,11.42
2017-11-13T01:18:57.724Z,14.50
2017-11-13T01:19:57.709Z,14.18
2017-11-13T01:20:57.692Z,16.77
2017-11-13T01:21:57.678Z,14.53
2017-11-13T01:22:57.666Z,14.05
2017-11-13T01:23:57.665Z,12.58
2017-11-13T01:24:57.653Z,12.06
2017-11-13T01:25:57.642Z,9.69
2017-11-13T01:26:57.637Z,9.96
2017-11-13T01:27:57.627Z,11.06
2017-11-13T01:28:57.614Z,10.79
2017-11-13T01:29:57.598Z,13.04
2017-11-13T01:30:57.582Z,9.92
2017-11-13T01:31:57.570Z,12.00
2017-11-13T01:32:57.568Z,11.94
2017-11-13T01:33:58.347Z,10.40
2017-11-13T01:34:57.563Z,10.86
2017-11-13T01:35:57.545Z,10.41
2017-11-13T01:36:57.520Z,11.68
2017-11-13T01:37:57.517Z,11.29
2017-11-13T01:38:09.503Z,0.45
2017-11-13T01:39:57.492Z,9.61
2017-11-13T01:40:57.479Z,9.79
2017-11-13T01:41:57.467Z,10.92
2017-11-13T01:42:57.457Z,12.01
2017-11-13T01:43:58.338Z,11.10
2017-11-13T01:44:57.464Z,12.32
2017-11-13T01:46:00.345Z,11.38
2017-11-13T01:46:57.416Z,10.74
2017-11-13T01:47:57.397Z,12.16
2017-11-13T01:48:57.393Z,14.44
2017-11-13T01:49:57.392Z,12.65
2017-11-13T01:50:57.376Z,13.97
2017-11-13T01:51:57.383Z,10.14
2017-11-13T01:52:57.347Z,14.61
2017-11-13T01:53:57.336Z,13.87
2017-11-13T01:54:57.326Z,12.67
2017-11-13T01:55:57.317Z,11.42
2017-11-13T01:56:57.317Z,13.64
2017-11-13T01:57:57.302Z,13.76
2017-11-13T01:58:57.282Z,12.77
2017-11-13T01:59:57.283Z,12.26
2017-11-13T02:00:57.850Z,11.48
2017-11-13T02:01:57.250Z,14.66
2017-11-13T02:02:57.234Z,13.76
2017-11-13T02:03:57.235Z,14.50
2017-11-13T02:04:57.207Z,11.10
2017-11-13T02:05:57.192Z,12.63
2017-11-13T02:06:57.201Z,11.84
2017-11-13T02:07:57.174Z,9.87
2017-11-13T02:08:57.172Z,7.85
2017-11-13T02:09:57.847Z,8.72
2017-11-13T02:10:57.156Z,11.06
2017-11-13T02:11:57.146Z,11.91
2017-11-13T02:12:57.144Z,10.83
2017-11-13T02:13:57.121Z,9.11
2017-11-13T02:14:57.104Z,8.64
2017-11-13T02:15:57.097Z,9.83
2017-11-13T02:16:59.856Z,8.42
2017-11-13T02:17:57.076Z,11.11
2017-11-13T02:18:57.070Z,10.56
2017-11-13T02:19:57.055Z,11.86
2017-11-13T02:20:57.051Z,10.10
2017-11-13T02:21:57.025Z,8.90
2017-11-13T02:22:57.020Z,10.18
2017-11-13T02:23:57.018Z,8.44
2017-11-13T02:24:56.997Z,10.36
2017-11-13T02:25:56.979Z,10.72
2017-11-13T02:26:56.971Z,8.16
2017-11-13T02:27:56.980Z,9.60
2017-11-13T02:28:57.857Z,10.83
2017-11-13T02:29:56.934Z,9.27
2017-11-13T02:30:56.923Z,10.20
2017-11-13T02:31:56.917Z,9.34
2017-11-13T02:32:56.906Z,8.97
2017-11-13T02:33:56.897Z,9.03
2017-11-13T02:34:56.911Z,9.70
2017-11-13T02:35:56.876Z,8.03
2017-11-13T02:36:56.869Z,7.91
2017-11-13T02:37:56.854Z,9.46
2017-11-13T02:38:56.851Z,9.61
2017-11-13T02:39:56.841Z,11.16
2017-11-13T02:40:56.824Z,9.96
2017-11-13T02:41:56.801Z,10.14
2017-11-13T02:42:56.802Z,10.37
2017-11-13T02:43:56.780Z,8.74
2017-11-13T02:44:56.771Z,9.06
2017-11-13T02:45:56.774Z,8.54
2017-11-13T02:46:56.759Z,9.93
2017-11-13T02:47:56.749Z,8.92
2017-11-13T02:48:56.729Z,9.08
2017-11-13T02:49:56.724Z,7.28
2017-11-13T02:50:56.714Z,9.29
2017-11-13T02:51:56.702Z,8.48
2017-11-13T02:52:56.702Z,8.58
2017-11-13T02:53:56.689Z,10.17
2017-11-13T02:54:56.679Z,9.86
2017-11-13T02:55:56.655Z,7.18
2017-11-13T02:56:56.646Z,7.48
2017-11-13T02:57:56.632Z,7.66
2017-11-13T02:58:56.620Z,8.26
2017-11-13T02:59:56.612Z,8.89
2017-11-13T03:00:56.602Z,11.43
2017-11-13T03:01:57.370Z,8.16
2017-11-13T03:02:56.588Z,7.88
2017-11-13T03:03:56.574Z,11.08
2017-11-13T03:04:56.586Z,9.47
2017-11-13T03:05:56.548Z,8.80
2017-11-13T03:06:56.536Z,7.44
2017-11-13T03:07:56.530Z,8.99
2017-11-13T03:08:56.533Z,10.01
2017-11-13T03:09:56.505Z,6.98
2017-11-13T03:10:56.494Z,10.59
2017-11-13T03:11:56.494Z,10.45
2017-11-13T03:12:56.475Z,8.98
2017-11-13T03:13:57.374Z,9.72
2017-11-13T03:14:56.456Z,10.87
2017-11-13T03:15:56.430Z,9.50
2017-11-13T03:16:56.418Z,8.58
2017-11-13T03:17:56.418Z,7.77
2017-11-13T03:18:56.409Z,8.06
2017-11-13T03:19:56.406Z,7.41
2017-11-13T03:20:58.369Z,7.65
2017-11-13T03:21:56.365Z,6.57
2017-11-13T03:22:56.374Z,8.82
2017-11-13T03:23:56.358Z,8.34
2017-11-13T03:24:56.341Z,9.47
2017-11-13T03:25:56.344Z,9.72
2017-11-13T03:26:56.318Z,11.65
2017-11-13T03:27:56.311Z,9.27
2017-11-13T03:28:56.290Z,9.96
2017-11-13T03:29:56.283Z,9.56
2017-11-13T03:30:56.284Z,9.72
2017-11-13T03:32:02.888Z,7.68
2017-11-13T03:32:56.251Z,10.46
2017-11-13T03:33:56.240Z,9.26
2017-11-13T03:34:56.230Z,9.24
2017-11-13T03:35:56.223Z,10.36
2017-11-13T03:36:56.211Z,10.42
2017-11-13T03:37:56.205Z,8.88
2017-11-13T03:38:56.190Z,9.68
2017-11-13T03:39:56.175Z,10.39
2017-11-13T03:40:56.165Z,8.81
2017-11-13T03:41:56.147Z,8.46
2017-11-13T03:42:56.890Z,9.94
2017-11-13T03:43:56.133Z,9.94
2017-11-13T03:44:56.113Z,12.22
2017-11-13T03:45:56.879Z,10.21
2017-11-13T03:46:56.101Z,9.36
2017-11-13T03:47:56.091Z,8.94
2017-11-13T03:48:56.085Z,8.87
2017-11-13T03:49:56.083Z,8.87
2017-11-13T03:50:56.057Z,10.32
2017-11-13T03:51:56.059Z,10.18
2017-11-13T03:52:56.032Z,8.52
2017-11-13T03:53:56.038Z,8.58
2017-11-13T03:54:56.009Z,6.26
2017-11-13T03:55:55.996Z,8.10
2017-11-13T03:56:55.988Z,9.04
2017-11-13T03:57:55.973Z,8.56
2017-11-13T03:58:55.970Z,9.68
2017-11-13T03:59:55.961Z,10.54
2017-11-13T04:00:55.947Z,9.97
2017-11-13T04:01:55.934Z,8.59
2017-11-13T04:02:55.923Z,10.71
2017-11-13T04:03:55.919Z,8.69
2017-11-13T04:04:56.920Z,8.02
2017-11-13T04:05:55.884Z,10.42
2017-11-13T04:06:55.868Z,9.98
2017-11-13T04:07:55.863Z,13.17
2017-11-13T04:08:55.869Z,10.92
2017-11-13T04:09:55.865Z,9.59
2017-11-13T04:10:55.829Z,9.46
2017-11-13T04:11:55.829Z,8.26
2017-11-13T04:12:55.803Z,9.20
2017-11-13T04:13:55.800Z,9.83
2017-11-13T04:14:55.797Z,8.92
2017-11-13T04:15:55.813Z,8.30
2017-11-13T04:16:55.781Z,7.58
2017-11-13T04:17:55.764Z,9.22
2017-11-13T04:18:55.743Z,7.62
2017-11-13T04:19:55.742Z,5.81
2017-11-13T04:20:55.721Z,6.56
2017-11-13T04:21:56.403Z,8.50
2017-11-13T04:22:55.703Z,7.99
2017-11-13T04:23:55.697Z,10.22
2017-11-13T04:24:55.682Z,9.92
2017-11-13T04:25:55.672Z,7.80
2017-11-13T04:26:55.669Z,10.26
2017-11-13T04:27:56.399Z,10.50
2017-11-13T04:28:55.630Z,6.96
2017-11-13T04:29:55.630Z,8.03
2017-11-13T04:30:55.624Z,8.50
2017-11-13T04:31:55.606Z,6.81
2017-11-13T04:32:55.594Z,8.88
2017-11-13T04:33:55.597Z,8.51
2017-11-13T04:34:55.576Z,6.24
2017-11-13T04:35:55.564Z,11.72
2017-11-13T04:36:55.548Z,9.61
2017-11-13T04:37:55.546Z,12.05
2017-11-13T04:38:55.525Z,10.11
2017-11-13T04:39:55.523Z,8.20
2017-11-13T04:40:55.506Z,11.82
2017-11-13T04:41:55.490Z,9.70
2017-11-13T04:42:55.483Z,9.15
2017-11-13T04:43:55.482Z,8.92
2017-11-13T04:44:55.464Z,10.27
2017-11-13T04:45:55.451Z,11.52
2017-11-13T04:46:55.436Z,13.35
2017-11-13T04:47:55.455Z,10.28
2017-11-13T04:48:55.421Z,9.68
2017-11-13T04:49:55.404Z,10.04
2017-11-13T04:50:55.395Z,11.07
2017-11-13T04:51:55.379Z,10.84
2017-11-13T04:52:55.369Z,13.31
2017-11-13T04:53:55.369Z,12.34
2017-11-13T04:54:55.353Z,10.72
2017-11-13T04:55:55.347Z,11.38
2017-11-13T04:56:55.328Z,13.02
2017-11-13T04:57:55.308Z,10.73
2017-11-13T04:58:55.317Z,10.42
2017-11-13T04:59:55.295Z,13.36
2017-11-13T05:00:55.290Z,10.90
2017-11-13T05:01:55.281Z,10.46
2017-11-13T05:02:55.275Z,13.30
2017-11-13T05:03:55.263Z,10.86
2017-11-13T05:04:55.245Z,10.23
2017-11-13T05:05:55.228Z,11.03
2017-11-13T05:06:55.215Z,9.69
2017-11-13T05:07:55.210Z,11.94
2017-11-13T05:08:55.194Z,13.23
2017-11-13T05:09:55.186Z,14.14
2017-11-13T05:10:55.176Z,13.35
2017-11-13T05:11:55.167Z,11.04
2017-11-13T05:12:55.166Z,12.96
2017-11-13T05:13:55.141Z,10.91
2017-11-13T05:14:55.133Z,10.75
2017-11-13T05:15:55.124Z,12.80
2017-11-13T05:16:55.109Z,12.62
2017-11-13T05:17:55.110Z,11.58
2017-11-13T05:18:55.078Z,13.00
2017-11-13T05:19:55.081Z,12.01
2017-11-13T05:20:55.064Z,10.84
2017-11-13T05:21:55.055Z,12.10
2017-11-13T05:22:55.041Z,10.73
2017-11-13T05:23:55.085Z,11.96
2017-11-13T05:24:55.930Z,12.90
2017-11-13T05:25:55.008Z,15.08
2017-11-13T05:26:54.993Z,15.58
2017-11-13T05:28:01.936Z,12.13
2017-11-13T05:28:54.977Z,11.72
2017-11-13T05:29:54.957Z,12.13
2017-11-13T05:30:54.959Z,12.87
2017-11-13T05:31:54.943Z,13.65
2017-11-13T05:32:54.929Z,12.81
2017-11-13T05:33:54.915Z,13.08
2017-11-13T05:34:54.909Z,12.19
2017-11-13T05:35:54.894Z,16.08
2017-11-13T05:36:54.895Z,15.48
2017-11-13T05:37:54.873Z,15.20
2017-11-13T05:38:55.422Z,15.54
2017-11-13T05:39:54.850Z,15.48
2017-11-13T05:40:54.842Z,16.93
2017-11-13T05:41:54.829Z,15.96
2017-11-13T05:42:54.814Z,13.01
2017-11-13T05:43:54.818Z,11.04
2017-11-13T05:44:54.799Z,14.96
2017-11-13T05:45:54.810Z,15.06
2017-11-13T05:46:55.433Z,14.96
2017-11-13T05:47:54.769Z,14.90
2017-11-13T05:48:54.759Z,13.99
2017-11-13T05:49:54.739Z,11.42
2017-11-13T05:50:54.731Z,10.25
2017-11-13T05:51:54.713Z,11.77
2017-11-13T05:52:57.426Z,14.19
2017-11-13T05:53:54.711Z,14.63
2017-11-13T05:54:54.693Z,14.14
2017-11-13T05:55:54.678Z,14.74
2017-11-13T05:56:55.428Z,12.37
2017-11-13T05:57:55.429Z,9.80
2017-11-13T05:58:54.643Z,14.47
2017-11-13T05:59:54.631Z,14.36
2017-11-13T06:00:54.617Z,12.09
2017-11-13T06:01:54.622Z,13.76
2017-11-13T06:02:55.445Z,13.63
2017-11-13T06:03:55.441Z,12.07
2017-11-13T06:04:54.575Z,15.46
2017-11-13T06:05:54.564Z,14.15
2017-11-13T06:06:54.551Z,14.45
2017-11-13T06:07:54.560Z,12.77
2017-11-13T06:08:54.535Z,15.32
2017-11-13T06:09:57.437Z,15.44
2017-11-13T06:10:54.511Z,11.62
2017-11-13T06:11:54.498Z,12.38
2017-11-13T06:12:54.489Z,11.93
2017-11-13T06:13:57.437Z,11.91
2017-11-13T06:14:55.429Z,12.14
2017-11-13T06:15:54.448Z,13.21
2017-11-13T06:16:54.440Z,11.91
2017-11-13T06:17:54.432Z,14.01
2017-11-13T06:18:54.424Z,12.00
2017-11-13T06:19:54.409Z,15.96
2017-11-13T06:20:54.405Z,15.13
2017-11-13T06:21:54.386Z,16.40
2017-11-13T06:22:54.369Z,13.82
2017-11-13T06:23:54.370Z,18.75
2017-11-13T06:24:54.351Z,14.69
2017-11-13T06:25:54.351Z,11.00
2017-11-13T06:26:54.328Z,16.01
2017-11-13T06:27:54.330Z,14.73
2017-11-13T06:28:54.301Z,13.84
2017-11-13T06:29:06.306Z,0.59
2017-11-13T06:30:54.288Z,11.70
2017-11-13T06:31:54.392Z,11.48
2017-11-13T06:32:54.264Z,13.98
2017-11-13T06:33:54.255Z,13.52
2017-11-13T06:34:54.239Z,10.80
2017-11-13T06:35:54.235Z,12.76
2017-11-13T06:36:54.214Z,14.78
2017-11-13T06:37:54.944Z,13.48
2017-11-13T06:38:54.951Z,11.88
2017-11-13T06:39:54.186Z,11.83
2017-11-13T06:40:54.182Z,11.02
2017-11-13T06:41:54.156Z,16.15
2017-11-13T06:42:54.279Z,11.18
2017-11-13T06:43:54.143Z,15.43
2017-11-13T06:44:54.133Z,16.79
2017-11-13T06:45:54.123Z,11.29
2017-11-13T06:46:54.139Z,13.84
2017-11-13T06:47:54.100Z,12.04
2017-11-13T06:48:54.107Z,9.46
2017-11-13T06:49:54.080Z,13.44
2017-11-13T06:50:54.064Z,11.04
2017-11-13T06:51:54.941Z,10.45
2017-11-13T06:52:54.038Z,12.26
2017-11-13T06:53:54.029Z,13.25
2017-11-13T06:54:54.045Z,10.58
2017-11-13T06:55:54.014Z,9.83
2017-11-13T06:56:54.000Z,11.96
2017-11-13T06:57:53.990Z,12.26
2017-11-13T06:58:53.980Z,12.79
2017-11-13T06:59:53.973Z,16.03
2017-11-13T07:00:53.957Z,13.57
2017-11-13T07:01:53.950Z,12.09
2017-11-13T07:02:53.934Z,11.81
2017-11-13T07:03:53.921Z,13.34
2017-11-13T07:04:54.450Z,13.45
2017-11-13T07:05:53.927Z,12.13
2017-11-13T07:06:53.889Z,15.05
2017-11-13T07:07:53.882Z,14.40
2017-11-13T07:08:53.866Z,13.38
2017-11-13T07:09:53.855Z,13.88
2017-11-13T07:10:53.853Z,13.71
2017-11-13T07:11:53.858Z,12.06
2017-11-13T07:12:53.843Z,13.75
2017-11-13T07:13:53.820Z,12.14
2017-11-13T07:14:53.805Z,14.98
2017-11-13T07:15:53.812Z,15.48
2017-11-13T07:16:53.802Z,12.01
2017-11-13T07:17:54.459Z,14.67
2017-11-13T07:18:53.764Z,12.58
2017-11-13T07:19:53.755Z,14.59
2017-11-13T07:20:53.749Z,12.91
2017-11-13T07:21:53.727Z,12.54
2017-11-13T07:22:54.458Z,13.92
2017-11-13T07:23:53.716Z,13.23
2017-11-13T07:24:53.695Z,11.55
2017-11-13T07:25:53.685Z,18.96
2017-11-13T07:26:53.677Z,13.13
2017-11-13T07:27:53.679Z,14.38
2017-11-13T07:28:53.656Z,13.49
2017-11-13T07:29:53.648Z,12.17
2017-11-13T07:30:53.634Z,13.98
2017-11-13T07:31:53.630Z,15.54
2017-11-13T07:32:53.615Z,16.76
2017-11-13T07:33:53.603Z,17.28
2017-11-13T07:34:53.599Z,13.24
2017-11-13T07:35:53.590Z,15.64
2017-11-13T07:36:53.567Z,17.43
2017-11-13T07:37:54.462Z,18.18
2017-11-13T07:38:53.546Z,14.84
2017-11-13T07:39:53.541Z,15.33
2017-11-13T07:40:53.523Z,14.04
2017-11-13T07:41:53.523Z,16.01
2017-11-13T07:42:53.509Z,13.85
2017-11-13T07:43:54.466Z,13.50
2017-11-13T07:44:53.487Z,17.05
2017-11-13T07:45:53.475Z,19.21
2017-11-13T07:46:53.466Z,13.58
2017-11-13T07:47:53.460Z,13.37
2017-11-13T07:48:53.443Z,14.79
2017-11-13T07:49:53.432Z,17.27
2017-11-13T07:50:53.422Z,15.88
2017-11-13T07:51:53.401Z,13.90
2017-11-13T07:52:53.400Z,17.44
2017-11-13T07:53:53.392Z,17.73
2017-11-13T07:54:53.379Z,15.82
2017-11-13T07:55:53.964Z,18.78
2017-11-13T07:56:53.362Z,20.21
2017-11-13T07:57:53.356Z,15.51
2017-11-13T07:58:53.334Z,18.32
2017-11-13T07:59:53.340Z,18.81
2017-11-13T08:00:53.312Z,18.99
2017-11-13T08:01:53.303Z,15.89
2017-11-13T08:02:53.294Z,15.31
2017-11-13T08:03:53.975Z,19.61
2017-11-13T08:04:53.271Z,16.94
2017-11-13T08:05:53.265Z,18.01
2017-11-13T08:06:53.977Z,15.96
2017-11-13T08:07:53.244Z,17.90
2017-11-13T08:08:53.233Z,17.31
2017-11-13T08:09:53.215Z,17.26
2017-11-13T08:10:53.214Z,20.71
2017-11-13T08:11:53.970Z,21.34
2017-11-13T08:12:53.186Z,18.12
2017-11-13T08:13:53.196Z,16.24
2017-11-13T08:14:53.170Z,18.16
2017-11-13T08:15:53.158Z,17.59
2017-11-13T08:16:53.160Z,19.89
2017-11-13T08:17:53.141Z,21.61
2017-11-13T08:18:53.133Z,19.44
2017-11-13T08:19:53.984Z,20.34
2017-11-13T08:20:53.105Z,22.00
2017-11-13T08:21:53.126Z,16.86
2017-11-13T08:22:53.094Z,21.94
2017-11-13T08:23:53.073Z,18.24
2017-11-13T08:24:53.070Z,20.93
2017-11-13T08:25:53.061Z,17.69
2017-11-13T08:26:53.058Z,20.47
2017-11-13T08:27:53.054Z,22.20
2017-11-13T08:28:53.029Z,23.14
2017-11-13T08:29:53.037Z,21.98
2017-11-13T08:30:53.007Z,20.75
2017-11-13T08:31:52.997Z,20.34
2017-11-13T08:32:53.002Z,19.48
2017-11-13T08:33:52.983Z,21.54
2017-11-13T08:34:52.969Z,21.87
2017-11-13T08:35:52.962Z,20.64
2017-11-13T08:36:52.954Z,21.46
2017-11-13T08:37:52.937Z,17.12
2017-11-13T08:38:53.485Z,19.24
2017-11-13T08:39:52.924Z,20.78
2017-11-13T08:40:52.921Z,17.92
2017-11-13T08:41:52.900Z,21.67
2017-11-13T08:42:53.488Z,22.82
2017-11-13T08:43:52.881Z,25.44
2017-11-13T08:44:52.877Z,20.19
2017-11-13T08:45:52.860Z,19.33
2017-11-13T08:46:52.845Z,22.08
2017-11-13T08:47:52.841Z,23.39
2017-11-13T08:48:52.826Z,21.56
2017-11-13T08:49:52.811Z,24.78
2017-11-13T08:50:52.818Z,25.84
2017-11-13T08:51:52.796Z,24.63
2017-11-13T08:52:52.791Z,20.56
2017-11-13T08:53:52.783Z,19.86
2017-11-13T08:54:53.493Z,21.18
2017-11-13T08:55:52.762Z,18.68
2017-11-13T08:56:53.506Z,27.03
2017-11-13T08:57:52.740Z,20.46
2017-11-13T08:58:52.728Z,22.08
2017-11-13T08:59:52.718Z,20.98
2017-11-13T09:00:52.716Z,18.89
2017-11-13T09:01:52.699Z,27.35
2017-11-13T09:02:52.684Z,26.16
2017-11-13T09:03:52.697Z,23.64
2017-11-13T09:04:52.674Z,19.36
2017-11-13T09:05:52.665Z,21.15
2017-11-13T09:06:52.655Z,25.65
2017-11-13T09:07:52.647Z,22.85
2017-11-13T09:08:52.633Z,21.08
2017-11-13T09:09:53.501Z,20.85
2017-11-13T09:10:52.614Z,23.60
2017-11-13T09:11:52.606Z,27.45
2017-11-13T09:12:52.594Z,24.22
2017-11-13T09:13:52.598Z,23.07
2017-11-13T09:14:52.607Z,20.70
2017-11-13T09:15:52.580Z,22.13
2017-11-13T09:16:52.553Z,29.54
2017-11-13T09:17:52.547Z,27.61
2017-11-13T09:18:52.544Z,23.35
2017-11-13T09:19:52.529Z,21.76
2017-11-13T09:20:52.513Z,21.02
2017-11-13T09:21:52.536Z,18.90
2017-11-13T09:22:52.499Z,22.48
2017-11-13T09:23:52.490Z,20.36
2017-11-13T09:24:52.482Z,25.03
2017-11-13T09:25:52.483Z,31.55
2017-11-13T09:26:52.459Z,23.66
2017-11-13T09:27:53.002Z,21.32
2017-11-13T09:28:52.439Z,17.39
2017-11-13T09:29:52.435Z,23.11
2017-11-13T09:30:53.029Z,28.12
2017-11-13T09:31:52.414Z,26.50
2017-11-13T09:32:52.457Z,18.66
2017-11-13T09:33:55.004Z,22.58
2017-11-13T09:34:52.389Z,24.14
2017-11-13T09:35:52.373Z,21.82
2017-11-13T09:36:52.369Z,23.45
2017-11-13T09:37:52.375Z,28.74
2017-11-13T09:38:52.352Z,23.19
2017-11-13T09:39:52.348Z,21.95
2017-11-13T09:40:52.369Z,24.53
2017-11-13T09:41:52.334Z,28.82
2017-11-13T09:42:52.324Z,23.99
2017-11-13T09:43:53.018Z,20.55
2017-11-13T09:44:52.311Z,24.21
2017-11-13T09:45:52.296Z,23.67
2017-11-13T09:46:53.019Z,24.62
2017-11-13T09:47:52.283Z,25.06
2017-11-13T09:48:52.284Z,21.85
2017-11-13T09:49:52.285Z,24.00
2017-11-13T09:50:52.251Z,24.79
2017-11-13T09:51:52.247Z,24.23
2017-11-13T09:52:52.242Z,26.56
2017-11-13T09:53:52.232Z,25.54
2017-11-13T09:54:52.205Z,24.01
2017-11-13T09:55:52.201Z,25.82
2017-11-13T09:56:53.022Z,21.63
2017-11-13T09:57:52.186Z,23.76
2017-11-13T09:58:52.194Z,31.72
2017-11-13T09:59:52.177Z,31.46
2017-11-13T10:00:52.152Z,25.89
2017-11-13T10:01:53.022Z,25.76
2017-11-13T10:02:52.141Z,25.97
2017-11-13T10:03:53.034Z,22.39
2017-11-13T10:04:52.129Z,31.78
2017-11-13T10:05:53.038Z,23.96
2017-11-13T10:06:52.100Z,24.08
2017-11-13T10:07:52.090Z,24.82
2017-11-13T10:08:52.086Z,26.08
2017-11-13T10:09:52.073Z,26.32
2017-11-13T10:10:52.081Z,25.00
2017-11-13T10:11:52.057Z,22.38
2017-11-13T10:12:52.052Z,24.82
2017-11-13T10:13:52.031Z,21.49
2017-11-13T10:14:52.032Z,27.09
2017-11-13T10:15:52.027Z,21.98
2017-11-13T10:16:52.016Z,22.96
2017-11-13T10:17:52.014Z,21.90
2017-11-13T10:18:52.536Z,21.94
2017-11-13T10:19:51.993Z,27.12
2017-11-13T10:20:51.984Z,28.36
2017-11-13T10:21:51.971Z,20.91
2017-11-13T10:22:51.963Z,20.28
2017-11-13T10:23:51.954Z,26.83
2017-11-13T10:24:51.947Z,21.93
2017-11-13T10:25:51.928Z,21.16
2017-11-13T10:26:51.932Z,20.38
2017-11-13T10:27:51.918Z,20.67
2017-11-13T10:28:51.904Z,26.26
2017-11-13T10:29:51.898Z,26.46
2017-11-13T10:30:52.538Z,26.59
2017-11-13T10:31:51.889Z,19.51
2017-11-13T10:32:51.875Z,23.35
2017-11-13T10:33:51.862Z,22.16
2017-11-13T10:34:54.536Z,27.18
2017-11-13T10:35:51.854Z,24.79
2017-11-13T10:36:51.841Z,24.46
2017-11-13T10:37:51.837Z,24.96
2017-11-13T10:38:51.824Z,22.81
2017-11-13T10:39:51.823Z,26.84
2017-11-13T10:40:51.804Z,22.04
2017-11-13T10:41:51.793Z,20.54
2017-11-13T10:42:51.788Z,24.46
2017-11-13T10:43:51.786Z,20.84
2017-11-13T10:44:51.779Z,27.25
2017-11-13T10:45:51.756Z,20.76
2017-11-13T10:46:51.750Z,22.41
2017-11-13T10:47:51.747Z,17.06
2017-11-13T10:48:51.756Z,23.14
2017-11-13T10:49:51.725Z,22.83
2017-11-13T10:50:51.725Z,24.00
2017-11-13T10:51:51.712Z,25.76
2017-11-13T10:52:51.699Z,21.90
2017-11-13T10:53:51.691Z,23.77
2017-11-13T10:54:51.692Z,20.16
2017-11-13T10:55:51.675Z,24.76
2017-11-13T10:56:51.667Z,26.52
2017-11-13T10:57:51.682Z,29.16
2017-11-13T10:58:51.650Z,27.73
2017-11-13T10:59:51.662Z,22.96
2017-11-13T11:00:51.642Z,21.07
2017-11-13T11:01:51.632Z,22.75
2017-11-13T11:02:51.623Z,21.38
2017-11-13T11:03:51.620Z,21.95
2017-11-13T11:04:51.613Z,21.12
2017-11-13T11:05:51.606Z,26.30
2017-11-13T11:06:51.584Z,23.59
2017-11-13T11:07:51.582Z,23.70
2017-11-13T11:08:51.563Z,24.84
2017-11-13T11:09:51.566Z,22.63
2017-11-13T11:10:51.555Z,20.30
2017-11-13T11:11:51.551Z,22.91
2017-11-13T11:12:51.539Z,25.91
2017-11-13T11:13:51.533Z,22.78
2017-11-13T11:14:51.542Z,22.42
2017-11-13T11:15:51.507Z,23.44
2017-11-13T11:16:51.500Z,21.70
2017-11-13T11:17:51.488Z,17.76
2017-11-13T11:18:51.496Z,21.50
2017-11-13T11:19:51.478Z,22.10
2017-11-13T11:20:51.469Z,19.78
2017-11-13T11:21:51.454Z,22.02
2017-11-13T11:22:52.054Z,22.81
2017-11-13T11:23:51.445Z,24.28
2017-11-13T11:24:51.428Z,21.55
2017-11-13T11:25:51.419Z,21.31
2017-11-13T11:26:51.413Z,24.55
2017-11-13T11:27:51.398Z,23.05
2017-11-13T11:28:51.399Z,27.89
2017-11-13T11:29:51.390Z,26.21
2017-11-13T11:30:51.375Z,22.74
2017-11-13T11:31:51.367Z,20.72
2017-11-13T11:32:51.356Z,20.32
2017-11-13T11:33:51.353Z,24.26
2017-11-13T11:34:51.341Z,30.77
2017-11-13T11:35:51.337Z,23.90
2017-11-13T11:36:51.334Z,28.08
2017-11-13T11:37:51.311Z,24.91
2017-11-13T11:38:51.294Z,21.80
2017-11-13T11:39:51.294Z,23.61
2017-11-13T11:40:51.279Z,25.73
2017-11-13T11:41:51.278Z,25.29
2017-11-13T11:42:51.271Z,25.07
2017-11-13T11:43:51.261Z,22.36
2017-11-13T11:44:51.251Z,25.64
2017-11-13T11:45:51.238Z,28.17
2017-11-13T11:46:51.236Z,22.28
2017-11-13T11:47:51.231Z,20.63
2017-11-13T11:48:51.216Z,21.03
2017-11-13T11:49:51.204Z,21.81
2017-11-13T11:50:51.193Z,20.84
2017-11-13T11:51:51.188Z,19.66
2017-11-13T11:52:51.178Z,17.57
2017-11-13T11:53:51.165Z,19.61
2017-11-13T11:54:51.171Z,18.38
2017-11-13T11:55:51.155Z,18.65
2017-11-13T11:56:51.149Z,19.92
2017-11-13T11:57:51.136Z,19.88
2017-11-13T11:58:51.131Z,21.20
2017-11-13T11:59:51.125Z,22.33
2017-11-13T12:00:51.114Z,19.03
2017-11-13T12:01:51.106Z,20.05
2017-11-13T12:02:51.103Z,24.44
2017-11-13T12:03:51.093Z,25.33
2017-11-13T12:04:51.085Z,20.31
2017-11-13T12:05:51.073Z,16.50
2017-11-13T12:06:51.065Z,18.89
2017-11-13T12:07:51.054Z,16.38
2017-11-13T12:08:51.048Z,18.40
2017-11-13T12:09:51.041Z,18.92
2017-11-13T12:10:51.036Z,18.84
2017-11-13T12:11:51.023Z,17.83
2017-11-13T12:12:51.020Z,21.68
2017-11-13T12:13:51.012Z,16.93
2017-11-13T12:14:51.003Z,17.36
2017-11-13T12:15:51.000Z,20.58
2017-11-13T12:16:50.990Z,18.26
2017-11-13T12:17:50.980Z,20.86
2017-11-13T12:18:50.968Z,15.91
2017-11-13T12:19:50.969Z,21.38
2017-11-13T12:20:50.955Z,19.69
2017-11-13T12:21:50.940Z,18.21
2017-11-13T12:22:51.581Z,20.81
2017-11-13T12:23:50.950Z,15.86
2017-11-13T12:24:50.931Z,19.62
2017-11-13T12:25:50.926Z,18.93
2017-11-13T12:26:50.927Z,17.54
2017-11-13T12:27:50.915Z,17.56
2017-11-13T12:28:50.911Z,17.59
2017-11-13T12:29:50.901Z,16.74
2017-11-13T12:30:50.891Z,16.00
2017-11-13T12:31:50.880Z,15.86
2017-11-13T12:32:50.881Z,21.56
2017-11-13T12:33:50.861Z,18.54
2017-11-13T12:34:50.858Z,16.10
2017-11-13T12:35:50.848Z,19.82
2017-11-13T12:36:50.845Z,21.18
2017-11-13T12:37:50.838Z,21.11
2017-11-13T12:38:50.834Z,28.95
2017-11-13T12:39:50.818Z,24.07
2017-11-13T12:40:50.826Z,20.46
2017-11-13T12:41:50.801Z,25.19
2017-11-13T12:42:50.801Z,21.38
2017-11-13T12:43:50.820Z,20.96
2017-11-13T12:44:50.783Z,20.18
2017-11-13T12:45:50.773Z,18.32
2017-11-13T12:46:50.763Z,20.02
2017-11-13T12:47:50.763Z,18.64
2017-11-13T12:48:50.753Z,24.72
2017-11-13T12:49:50.741Z,20.29
2017-11-13T12:50:50.734Z,18.94
2017-11-13T12:51:50.724Z,21.33
2017-11-13T12:52:50.723Z,25.19
2017-11-13T12:53:50.719Z,21.54
2017-11-13T12:54:50.703Z,19.25
2017-11-13T12:55:50.698Z,18.23
2017-11-13T12:56:50.689Z,19.52